Meteo Giornale » Osservazioni meteo Stati Uniti (USA) » Salmon Lemhi
ore: 19:56 - Osservazioni Meteo Salmon Lemhi
Lat. 45° 7' N Lon. 113° 53' W Alt. 1233 metri s.l.m.
23 °C
Sereno
Temp. 24 Ore
3 °C
27 °C
Nord
5.5 Km/h
Dew point 3 °C
Umidità 26 %
Visibilità 10 Km
Il sole sorge alle ore 06:56
Il sole tramonta alle ore 20:14
| Data e Ora | Cielo e Fenomeni | T °C | DP °C | Um. % | Pres. hPa | Vis. km | Vento km/h | |
|---|---|---|---|---|---|---|---|---|
| Oggi h: 19:56 | Sereno | 23 | 3 | 26 | 1012 | 10 | N 5.5 | |
| Oggi h: 18:56 | Sereno | 26 | 5 | 25 | 1012 | 10 | N 7.4 | |
| Oggi h: 17:56 | Sereno | 27 | -1 | 15 | 1013 | 10 | N/NO 9.3 | |
| Oggi h: 16:56 | Sereno | 27 | -2 | 14 | 1014 | 10 | N/NO 9.3 | |
| Oggi h: 15:56 | Sereno | 26 | 1 | 19 | 1015 | 10 | N/NO 11.1 | |
| Oggi h: 14:56 | Sereno | 25 | 1 | 20 | 1016 | 10 | N 7.4 | |
| Oggi h: 13:56 | Sereno | 22 | 1 | 24 | 1017 | 10 | N 7.4 | |
| Oggi h: 12:56 | Sereno | 21 | -1 | 22 | 1018 | 10 | N 5.5 | |
| Oggi h: 11:56 | Sereno | 17 | 1 | 33 | 1019 | 10 | N 0 | |
| Oggi h: 10:56 | Sereno | 14 | 0 | 38 | 1020 | 10 | N 0 | |
| Oggi h: 09:56 | Poco Nuvoloso | 12 | 0 | 43 | 1021 | 10 | N 0 | |
| Oggi h: 08:56 | Nuvoloso | 9 | 0 | 53 | 1021 | 14 | N 0 | |
| Oggi h: 08:16 | Nuvoloso | 6 | 1 | 70 | 1021 | 10 | N 0 | |
| Oggi h: 07:56 | Sereno | 5 | 0 | 70 | 1021 | 10 | N 0 | |
| Oggi h: 07:53 | Poco Nuvoloso | 5 | 0 | 70 | 1021 | 10 | N 0 | |
| Oggi h: 06:56 | Sereno | 3 | -1 | 74 | 1020 | 10 | N 5.5 | |
| Oggi h: 05:56 | Sereno | 4 | -1 | 69 | 1020 | 10 | N 0 | |
| Oggi h: 04:56 | Sereno | 5 | -1 | 65 | 1020 | 10 | N 0 | |
| Oggi h: 03:56 | Sereno | 6 | 1 | 70 | 1019 | 10 | N 0 | |
| Oggi h: 02:56 | Sereno | 7 | 1 | 65 | 1019 | 10 | N 0 | |
| Oggi h: 01:56 | Sereno | 8 | 0 | 56 | 1019 | 10 | N 0 | |
| Oggi h: 00:56 | Sereno | 9 | 1 | 57 | 1019 | 10 | N 0 | |
| Ieri h: 23:56 | Sereno | 14 | -2 | 32 | 1018 | 10 | N 0 | |
| Ieri h: 22:56 | Sereno | 14 | -2 | 32 | 1017 | 10 | N 0 | |
| Ieri h: 21:56 | Sereno | 13 | -2 | 35 | 1017 | 10 | S/SE 7.4 | |
| Ieri h: 20:56 | Sereno | 15 | 1 | 38 | 1016 | 10 | S/SE 7.4 | |



